Time;durP1;ratioP1;P1;durP2;ratioP2;P2;SDS_P1;SDS_P2;PMS_P1;PMS_P2;Temp;Humidity;BMP_temperature;BMP_pressure;BME280_temperature;BME280_humidity;BME280_pressure;Samples;Min_cycle;Max_cycle;Signal;HPM_P1;HPM_P2
2023/12/31 00:00:12;;;;;;;9.52;7.78;;;22.10;99.90;;;;;;5012744;28;20076;-51
2023/12/31 00:02:38;;;;;;;9.32;7.15;;;22.10;99.90;;;;;;5012387;28;20517;-52
2023/12/31 00:05:05;;;;;;;9.32;7.43;;;22.10;99.90;;;;;;5012540;28;20033;-52
2023/12/31 00:07:31;;;;;;;11.32;8.68;;;22.10;99.90;;;;;;5012545;28;20026;-52
2023/12/31 00:09:57;;;;;;;11.07;7.55;;;22.10;99.90;;;;;;5012571;28;20470;-52
2023/12/31 00:12:22;;;;;;;9.82;7.60;;;22.00;99.90;;;;;;5012401;28;20067;-52
2023/12/31 00:14:48;;;;;;;8.43;6.93;;;22.00;99.90;;;;;;5011073;28;20026;-52
2023/12/31 00:17:14;;;;;;;7.78;6.95;;;22.00;99.90;;;;;;5012536;28;20032;-52
2023/12/31 00:19:40;;;;;;;9.30;7.10;;;22.00;99.90;;;;;;5012432;28;20393;-51
2023/12/31 00:22:07;;;;;;;9.02;7.22;;;22.00;99.90;;;;;;5012361;28;20048;-51
2023/12/31 00:24:33;;;;;;;10.38;7.55;;;22.00;99.90;;;;;;5012575;28;20022;-52
2023/12/31 00:26:58;;;;;;;9.52;7.15;;;21.90;99.90;;;;;;5011035;28;20034;-53
2023/12/31 00:29:24;;;;;;;8.48;7.50;;;21.90;99.90;;;;;;5012284;28;20033;-53
2023/12/31 00:31:50;;;;;;;9.70;7.28;;;21.90;99.90;;;;;;5012058;28;20042;-52
2023/12/31 00:34:16;;;;;;;9.82;7.28;;;21.90;99.90;;;;;;5012463;28;20096;-52
2023/12/31 00:36:42;;;;;;;9.27;7.10;;;21.90;99.90;;;;;;5012200;28;20501;-52
2023/12/31 00:39:08;;;;;;;9.73;7.68;;;21.90;99.90;;;;;;5012311;28;20034;-52
2023/12/31 00:41:33;;;;;;;9.00;6.70;;;21.90;99.90;;;;;;5010861;28;20433;-51
2023/12/31 00:43:59;;;;;;;8.43;6.85;;;21.80;99.90;;;;;;5012161;28;20022;-51
2023/12/31 00:46:25;;;;;;;8.60;6.68;;;21.80;99.90;;;;;;5015417;28;20036;-52
2023/12/31 00:48:51;;;;;;;7.82;6.43;;;21.90;99.90;;;;;;5016234;28;20014;-52
2023/12/31 00:51:16;;;;;;;9.93;7.10;;;21.80;99.90;;;;;;5014984;28;20038;-52
2023/12/31 00:53:42;;;;;;;9.68;7.07;;;21.80;99.90;;;;;;5014741;28;20445;-52
2023/12/31 00:56:09;;;;;;;8.63;7.40;;;21.80;99.90;;;;;;5015932;28;20901;-52
2023/12/31 00:58:35;;;;;;;8.63;6.87;;;21.80;99.90;;;;;;5016052;28;20486;-52
2023/12/31 01:01:01;;;;;;;9.32;7.53;;;21.80;99.90;;;;;;5016386;28;20441;-52
2023/12/31 01:03:27;;;;;;;9.23;7.20;;;21.80;99.90;;;;;;5015949;28;20026;-53
2023/12/31 01:05:53;;;;;;;8.63;6.78;;;21.80;99.90;;;;;;5015809;28;20018;-52
2023/12/31 01:08:19;;;;;;;10.05;7.00;;;21.80;99.90;;;;;;5014830;28;20037;-52
2023/12/31 01:10:44;;;;;;;9.60;7.20;;;21.70;99.90;;;;;;5014680;28;20034;-52
2023/12/31 01:13:10;;;;;;;8.45;7.05;;;21.70;99.90;;;;;;5015763;28;20033;-52
2023/12/31 01:15:36;;;;;;;9.00;6.68;;;21.70;99.90;;;;;;5014353;28;20474;-53
2023/12/31 01:18:02;;;;;;;9.45;6.78;;;21.70;99.90;;;;;;5015714;28;20037;-52
2023/12/31 01:20:27;;;;;;;10.05;7.60;;;21.70;99.90;;;;;;5015548;28;20044;-52
2023/12/31 01:22:53;;;;;;;7.70;6.85;;;21.70;99.90;;;;;;5015605;28;20104;-52
2023/12/31 01:25:19;;;;;;;8.52;7.40;;;21.60;99.90;;;;;;5015787;28;20048;-54
2023/12/31 01:27:45;;;;;;;7.60;6.68;;;21.60;99.90;;;;;;5015760;28;20025;-53
2023/12/31 01:30:12;;;;;;;6.78;6.07;;;21.60;99.90;;;;;;5015322;28;20028;-51
2023/12/31 01:32:37;;;;;;;9.98;6.88;;;21.60;99.90;;;;;;5015345;28;20048;-51
2023/12/31 01:35:04;;;;;;;9.38;7.40;;;21.60;99.90;;;;;;5014088;28;20026;-52
2023/12/31 01:37:29;;;;;;;7.75;6.40;;;21.60;99.90;;;;;;5015560;28;20042;-52
2023/12/31 01:39:56;;;;;;;8.38;6.80;;;21.60;99.90;;;;;;5014089;28;20040;-51
2023/12/31 01:42:22;;;;;;;7.90;6.60;;;21.60;99.90;;;;;;5015325;28;20044;-52
2023/12/31 01:44:48;;;;;;;7.18;6.47;;;21.60;99.90;;;;;;5015446;28;20030;-53
2023/12/31 01:47:15;;;;;;;7.80;6.43;;;21.50;99.90;;;;;;5015122;28;20018;-52
2023/12/31 01:49:41;;;;;;;8.57;6.97;;;21.50;99.90;;;;;;5015157;28;20491;-52
2023/12/31 01:52:06;;;;;;;7.95;6.28;;;21.50;99.90;;;;;;5015112;28;20528;-52
2023/12/31 01:54:32;;;;;;;8.57;6.07;;;21.50;99.90;;;;;;5015190;28;20026;-53
2023/12/31 01:56:59;;;;;;;8.18;6.68;;;21.50;99.90;;;;;;5013811;28;20036;-52
2023/12/31 01:59:26;;;;;;;8.50;6.90;;;21.50;99.90;;;;;;5014947;28;20029;-52
2023/12/31 02:01:52;;;;;;;7.88;6.72;;;21.50;99.90;;;;;;5015445;28;20061;-51
2023/12/31 02:04:23;;;;;;;7.05;6.35;;;21.50;99.90;;;;;;5015106;28;20517;-52
2023/12/31 02:06:49;;;;;;;7.88;7.03;;;21.40;99.90;;;;;;5015134;28;20043;-51
2023/12/31 02:09:15;;;;;;;7.05;6.28;;;21.40;99.90;;;;;;5014802;28;20018;-51
2023/12/31 02:11:41;;;;;;;7.75;6.30;;;21.40;99.90;;;;;;5014627;28;20037;-51
2023/12/31 02:14:07;;;;;;;7.07;6.25;;;21.40;99.90;;;;;;5014689;28;20030;-52
2023/12/31 02:16:32;;;;;;;9.27;6.40;;;21.40;99.90;;;;;;5014549;28;20026;-51
2023/12/31 02:18:58;;;;;;;7.63;6.00;;;21.40;99.90;;;;;;5014739;28;20127;-50
2023/12/31 02:21:26;;;;;;;6.43;5.80;;;21.30;99.90;;;;;;5014570;28;20105;-50
2023/12/31 02:23:52;;;;;;;7.47;6.35;;;21.30;99.90;;;;;;5013515;28;20029;-51
2023/12/31 02:26:18;;;;;;;8.10;6.30;;;21.30;99.90;;;;;;5014727;28;20080;-53
2023/12/31 02:28:44;;;;;;;7.88;6.40;;;21.30;99.90;;;;;;5014241;28;20421;-52
2023/12/31 02:31:09;;;;;;;7.38;6.60;;;21.30;99.90;;;;;;5014241;28;20033;-53
2023/12/31 02:33:35;;;;;;;7.85;6.28;;;21.30;99.90;;;;;;5014293;28;20369;-52
2023/12/31 02:36:01;;;;;;;7.35;5.97;;;21.30;99.90;;;;;;5014206;28;20133;-53
2023/12/31 02:38:28;;;;;;;7.63;5.60;;;21.30;99.90;;;;;;5014292;28;20025;-51
2023/12/31 02:40:53;;;;;;;7.72;5.80;;;21.30;99.90;;;;;;5014334;28;20556;-51
2023/12/31 02:43:19;;;;;;;7.10;6.05;;;21.30;99.90;;;;;;5014167;28;20033;-50
2023/12/31 02:45:45;;;;;;;8.13;5.53;;;21.20;99.90;;;;;;5012782;28;20068;-50
2023/12/31 02:48:11;;;;;;;6.88;6.18;;;21.20;99.90;;;;;;5014013;28;20026;-51
2023/12/31 02:50:37;;;;;;;6.68;5.65;;;21.20;99.90;;;;;;5013765;28;20025;-50
2023/12/31 02:53:03;;;;;;;8.68;6.30;;;21.20;99.90;;;;;;5013806;28;20040;-50
2023/12/31 02:55:29;;;;;;;6.40;5.65;;;21.20;99.90;;;;;;5012605;28;20022;-51
2023/12/31 02:57:55;;;;;;;6.55;5.80;;;21.20;99.90;;;;;;5013860;28;20029;-51
2023/12/31 03:00:21;;;;;;;8.18;5.88;;;21.20;99.90;;;;;;5026044;22;20002;-48
2023/12/31 03:02:46;;;;;;;7.22;5.90;;;21.20;99.90;;;;;;5013860;28;20034;-49
2023/12/31 03:05:12;;;;;;;6.75;5.75;;;21.10;99.90;;;;;;5012510;28;20024;-49
2023/12/31 03:07:38;;;;;;;7.60;6.07;;;21.20;99.90;;;;;;5013743;28;20029;-49
2023/12/31 03:10:05;;;;;;;6.10;5.50;;;21.10;99.90;;;;;;5013576;28;20172;-49
2023/12/31 03:12:30;;;;;;;10.10;6.50;;;21.20;99.90;;;;;;5013516;28;20041;-49
2023/12/31 03:14:59;;;;;;;6.82;6.13;;;21.10;99.90;;;;;;5013473;28;20042;-49
2023/12/31 03:17:25;;;;;;;7.00;5.47;;;21.10;99.90;;;;;;5012180;28;20033;-49
2023/12/31 03:19:51;;;;;;;8.45;6.22;;;21.10;99.90;;;;;;5013557;28;20022;-49
2023/12/31 03:22:16;;;;;;;6.32;5.40;;;21.10;99.90;;;;;;5013384;28;20022;-49
2023/12/31 03:24:43;;;;;;;7.18;5.60;;;21.10;99.90;;;;;;5013629;28;20065;-49
2023/12/31 03:27:09;;;;;;;6.28;4.97;;;21.10;99.90;;;;;;5012509;28;20072;-49
2023/12/31 03:29:35;;;;;;;6.65;5.15;;;21.10;99.90;;;;;;5013333;28;20057;-49
2023/12/31 03:32:02;;;;;;;6.38;5.13;;;21.10;99.90;;;;;;5013341;28;20448;-49
2023/12/31 03:34:27;;;;;;;6.88;5.18;;;21.10;99.90;;;;;;5013494;28;20050;-49
2023/12/31 03:36:53;;;;;;;5.88;5.22;;;21.00;99.90;;;;;;5013143;28;20053;-49
2023/12/31 03:39:19;;;;;;;7.32;5.25;;;21.00;99.90;;;;;;5013310;28;20026;-49
2023/12/31 03:41:45;;;;;;;5.90;5.05;;;21.00;99.90;;;;;;5013150;28;20424;-48
2023/12/31 03:44:11;;;;;;;5.85;4.85;;;21.10;99.90;;;;;;5011935;28;20050;-49
2023/12/31 03:46:37;;;;;;;6.40;5.30;;;21.00;99.90;;;;;;5013009;28;20029;-49
2023/12/31 03:49:02;;;;;;;6.68;5.53;;;21.00;99.90;;;;;;5013125;28;20454;-49
2023/12/31 03:51:28;;;;;;;8.00;5.90;;;21.00;99.90;;;;;;5012713;28;20128;-49
2023/12/31 03:53:54;;;;;;;7.15;5.35;;;21.00;99.90;;;;;;5012853;28;20037;-49
2023/12/31 03:56:20;;;;;;;6.65;4.80;;;21.00;99.90;;;;;;5012822;28;20040;-49
2023/12/31 03:58:45;;;;;;;5.15;4.60;;;21.00;99.90;;;;;;5012761;28;20022;-49
2023/12/31 04:01:11;;;;;;;5.55;4.80;;;21.00;99.90;;;;;;5024917;23;20041;-49
2023/12/31 04:03:39;;;;;;;5.70;4.95;;;21.00;99.90;;;;;;5012598;28;20367;-50
2023/12/31 04:06:07;;;;;;;5.78;4.15;;;21.00;99.90;;;;;;5012745;28;20653;-49
2023/12/31 04:08:33;;;;;;;4.70;4.22;;;21.00;99.90;;;;;;5012633;28;20563;-49
2023/12/31 04:10:59;;;;;;;6.32;4.50;;;21.00;99.90;;;;;;5012523;28;20038;-49
2023/12/31 04:13:25;;;;;;;5.35;4.85;;;20.90;99.90;;;;;;5012638;28;20462;-49
2023/12/31 04:15:50;;;;;;;5.43;4.85;;;21.00;99.90;;;;;;5012517;28;20029;-49
2023/12/31 04:18:17;;;;;;;5.68;4.60;;;20.90;99.90;;;;;;5012536;28;20087;-49
2023/12/31 04:20:43;;;;;;;5.30;4.63;;;20.90;99.90;;;;;;5010919;28;20018;-49
2023/12/31 04:23:09;;;;;;;4.95;4.45;;;20.90;99.90;;;;;;5012536;28;20077;-49
2023/12/31 04:25:34;;;;;;;5.65;4.75;;;20.90;99.90;;;;;;5012423;28;20486;-49
2023/12/31 04:28:00;;;;;;;5.35;4.43;;;20.90;99.90;;;;;;4994716;28;20029;-49
2023/12/31 04:30:26;;;;;;;5.18;4.18;;;20.90;99.90;;;;;;5012442;28;20034;-49
2023/12/31 04:32:53;;;;;;;7.57;4.60;;;20.90;99.90;;;;;;5012404;28;20504;-49
2023/12/31 04:35:19;;;;;;;5.75;5.18;;;20.90;99.90;;;;;;5012428;28;20026;-50
2023/12/31 04:37:44;;;;;;;6.70;5.30;;;20.90;99.90;;;;;;5012625;28;20112;-50
2023/12/31 04:40:11;;;;;;;6.82;4.70;;;20.80;99.90;;;;;;5012235;28;20108;-50
2023/12/31 04:42:36;;;;;;;6.00;4.88;;;20.80;99.90;;;;;;5012150;28;20060;-50
2023/12/31 04:45:07;;;;;;;5.28;4.70;;;20.80;99.90;;;;;;5011067;28;20038;-50
2023/12/31 04:47:34;;;;;;;6.82;4.53;;;20.80;99.90;;;;;;5012247;28;20018;-50
2023/12/31 04:50:00;;;;;;;10.52;5.00;;;20.80;99.90;;;;;;5011016;28;20133;-50
2023/12/31 04:52:26;;;;;;;5.20;4.70;;;20.80;99.90;;;;;;5012132;28;20497;-50
2023/12/31 04:54:52;;;;;;;6.90;4.50;;;20.80;99.90;;;;;;5012207;28;20066;-50
2023/12/31 04:57:18;;;;;;;5.50;4.65;;;20.80;99.90;;;;;;5012370;28;20423;-50
2023/12/31 04:59:43;;;;;;;6.03;4.70;;;20.80;99.90;;;;;;5012471;28;20385;-50
2023/12/31 05:02:09;;;;;;;5.20;4.22;;;20.80;99.90;;;;;;5012157;28;20046;-51
2023/12/31 05:04:35;;;;;;;4.60;4.20;;;20.80;99.90;;;;;;5012198;28;20041;-50
2023/12/31 05:07:02;;;;;;;5.47;4.72;;;20.80;99.90;;;;;;5012108;28;20030;-50
2023/12/31 05:09:28;;;;;;;7.43;4.40;;;20.80;99.90;;;;;;5010882;28;20026;-50
2023/12/31 05:11:54;;;;;;;6.70;4.00;;;20.80;99.90;;;;;;5010709;28;20476;-50
2023/12/31 05:14:20;;;;;;;5.90;4.50;;;20.80;99.90;;;;;;5010819;28;20029;-50
2023/12/31 05:16:45;;;;;;;5.20;4.45;;;20.70;99.90;;;;;;5012118;28;20065;-50
2023/12/31 05:19:11;;;;;;;4.97;4.45;;;20.80;99.90;;;;;;5010752;28;20022;-50
2023/12/31 05:21:40;;;;;;;4.57;4.18;;;20.70;99.90;;;;;;5011960;28;20481;-50
2023/12/31 05:24:06;;;;;;;9.23;3.95;;;20.70;99.90;;;;;;5011994;28;20018;-51
2023/12/31 05:26:32;;;;;;;3.90;3.53;;;20.70;99.90;;;;;;5012118;28;20040;-50
2023/12/31 05:28:58;;;;;;;5.13;4.20;;;20.70;99.90;;;;;;5011889;28;20026;-50
2023/12/31 05:31:24;;;;;;;5.57;4.47;;;20.70;99.90;;;;;;5013426;28;20505;-50
2023/12/31 05:33:50;;;;;;;5.07;4.50;;;20.70;99.90;;;;;;5015867;28;20026;-50
2023/12/31 05:36:15;;;;;;;4.15;3.70;;;20.70;99.90;;;;;;5014465;28;20075;-51
2023/12/31 05:38:41;;;;;;;6.03;4.93;;;20.70;99.90;;;;;;5015420;28;20100;-50
2023/12/31 05:41:07;;;;;;;7.20;4.15;;;20.60;99.90;;;;;;5015292;28;20041;-52
2023/12/31 05:43:33;;;;;;;6.20;4.00;;;20.70;99.90;;;;;;5015267;28;20022;-50
2023/12/31 05:46:00;;;;;;;5.00;3.88;;;20.60;99.90;;;;;;5015313;28;20026;-50
2023/12/31 05:48:26;;;;;;;6.75;4.13;;;20.60;99.90;;;;;;5015358;28;20119;-50
2023/12/31 05:50:52;;;;;;;7.03;4.63;;;20.60;99.90;;;;;;5015156;28;20085;-50
2023/12/31 05:53:18;;;;;;;4.32;3.88;;;20.60;99.90;;;;;;5015313;28;20497;-51
2023/12/31 05:55:45;;;;;;;4.60;3.75;;;20.60;99.90;;;;;;5013865;28;20112;-51
2023/12/31 05:58:10;;;;;;;4.32;3.92;;;20.60;99.90;;;;;;5013815;28;20855;-51
2023/12/31 06:00:36;;;;;;;4.15;3.70;;;20.60;99.90;;;;;;5014983;28;20029;-51
2023/12/31 06:03:02;;;;;;;4.28;3.45;;;20.60;99.90;;;;;;5014946;28;20030;-50
2023/12/31 06:05:28;;;;;;;4.40;4.00;;;20.60;99.90;;;;;;5014877;28;20385;-50
2023/12/31 06:07:54;;;;;;;4.35;3.95;;;20.50;99.90;;;;;;5014807;28;20026;-51
2023/12/31 06:10:19;;;;;;;4.38;3.55;;;20.50;99.90;;;;;;5015057;28;20084;-51
2023/12/31 06:12:45;;;;;;;4.90;4.07;;;20.50;99.90;;;;;;5014851;28;20032;-51
2023/12/31 06:15:11;;;;;;;3.95;3.40;;;20.50;99.90;;;;;;5013406;28;20429;-49
2023/12/31 06:17:38;;;;;;;4.13;3.70;;;20.60;99.90;;;;;;5014689;28;20120;-50
2023/12/31 06:20:06;;;;;;;4.57;3.15;;;20.50;99.90;;;;;;5013378;28;20026;-50
2023/12/31 06:22:32;;;;;;;3.80;3.42;;;20.50;99.90;;;;;;5014638;28;20022;-50
2023/12/31 06:24:59;;;;;;;4.30;3.90;;;20.50;99.90;;;;;;5014553;28;20026;-50
2023/12/31 06:27:25;;;;;;;4.68;4.00;;;20.50;99.90;;;;;;5013407;28;20022;-50
2023/12/31 06:29:51;;;;;;;3.95;3.42;;;20.50;99.90;;;;;;5014651;28;20478;-50
2023/12/31 06:32:18;;;;;;;5.40;4.15;;;20.50;99.90;;;;;;5014304;28;20056;-50
2023/12/31 06:34:44;;;;;;;4.68;3.83;;;20.40;99.90;;;;;;5014169;28;20049;-50
2023/12/31 06:37:09;;;;;;;3.70;3.03;;;20.40;99.90;;;;;;5014283;28;20061;-50
2023/12/31 06:39:35;;;;;;;3.97;3.20;;;20.50;99.90;;;;;;5014208;28;20378;-50
2023/12/31 06:42:01;;;;;;;4.10;3.40;;;20.40;99.90;;;;;;5014103;28;20057;-50
2023/12/31 06:44:28;;;;;;;3.70;3.30;;;20.40;99.90;;;;;;5013729;28;20097;-50
2023/12/31 06:46:54;;;;;;;4.38;3.42;;;20.40;99.90;;;;;;5014107;28;20018;-51
2023/12/31 06:49:20;;;;;;;3.55;3.20;;;20.40;99.90;;;;;;5014269;28;20030;-50
2023/12/31 06:51:46;;;;;;;3.72;3.40;;;20.40;99.90;;;;;;5012767;28;20084;-50
2023/12/31 06:54:11;;;;;;;3.75;3.20;;;20.40;99.90;;;;;;5013999;28;20022;-51
2023/12/31 06:56:37;;;;;;;3.53;3.22;;;20.40;99.90;;;;;;5014119;28;20030;-50
2023/12/31 06:59:03;;;;;;;3.85;3.40;;;20.40;99.90;;;;;;5013921;28;20104;-51
2023/12/31 07:01:29;;;;;;;4.57;3.85;;;20.40;99.90;;;;;;5013722;28;20057;-50
2023/12/31 07:03:55;;;;;;;3.40;3.08;;;20.40;99.90;;;;;;5013820;28;20026;-50
2023/12/31 07:06:21;;;;;;;4.57;3.80;;;20.40;99.90;;;;;;5014029;28;20026;-50
2023/12/31 07:08:47;;;;;;;5.22;3.53;;;20.40;99.90;;;;;;5013681;28;20036;-50
2023/12/31 07:11:14;;;;;;;4.57;3.45;;;20.40;99.90;;;;;;5013807;28;20026;-51
2023/12/31 07:13:40;;;;;;;4.07;3.25;;;20.40;99.90;;;;;;5013668;28;20030;-50
2023/12/31 07:16:06;;;;;;;3.95;3.30;;;20.40;99.90;;;;;;5013636;28;20382;-50
2023/12/31 07:18:33;;;;;;;4.45;3.42;;;20.40;99.90;;;;;;5013365;28;20445;-50
2023/12/31 07:20:59;;;;;;;4.20;3.15;;;20.40;99.90;;;;;;5013497;28;20026;-50
2023/12/31 07:23:25;;;;;;;4.15;3.15;;;20.30;99.90;;;;;;5013588;28;20427;-50
2023/12/31 07:25:50;;;;;;;4.00;3.22;;;20.30;99.90;;;;;;5013621;28;20022;-50
2023/12/31 07:28:16;;;;;;;3.45;3.10;;;20.30;99.90;;;;;;5013376;28;20528;-50
2023/12/31 07:30:46;;;;;;;4.93;3.63;;;20.30;99.90;;;;;;5013286;28;20482;-50
2023/12/31 07:33:12;;;;;;;3.65;3.28;;;20.30;99.90;;;;;;5012218;28;20025;-50
2023/12/31 07:35:38;;;;;;;4.13;3.13;;;20.30;99.90;;;;;;5013159;28;20021;-49
2023/12/31 07:38:06;;;;;;;3.92;3.20;;;20.30;99.90;;;;;;5013043;28;20029;-50
2023/12/31 07:40:31;;;;;;;;;;;20.30;99.90;;;;;;5013568;28;20100;-49
2023/12/31 07:42:57;;;;;;;4.95;3.20;;;20.30;99.90;;;;;;5013173;28;20443;-49
2023/12/31 07:45:23;;;;;;;4.65;3.95;;;20.30;99.90;;;;;;4995862;28;20032;-50
2023/12/31 07:47:49;;;;;;;5.22;2.95;;;20.30;99.90;;;;;;5012789;28;20393;-49
2023/12/31 07:50:15;;;;;;;3.88;2.90;;;20.30;99.90;;;;;;5012909;28;20022;-50
2023/12/31 07:52:41;;;;;;;4.90;3.30;;;20.30;99.90;;;;;;5012691;28;20033;-50
2023/12/31 07:55:10;;;;;;;3.63;2.95;;;20.30;99.90;;;;;;5012090;28;20029;-50
2023/12/31 07:57:36;;;;;;;3.95;3.00;;;20.30;99.90;;;;;;5012858;28;20064;-50
2023/12/31 08:00:07;;;;;;;3.33;3.03;;;20.30;99.90;;;;;;5012699;28;20018;-51
2023/12/31 08:02:32;;;;;;;3.33;2.97;;;20.30;99.90;;;;;;5012578;28;20058;-50
2023/12/31 08:04:58;;;;;;;3.40;2.97;;;20.40;99.90;;;;;;5012798;28;20359;-50
2023/12/31 08:07:24;;;;;;;2.67;2.45;;;20.40;99.90;;;;;;5012915;28;20022;-50
2023/12/31 08:09:50;;;;;;;3.42;3.00;;;20.40;99.90;;;;;;5011517;28;20539;-50
2023/12/31 08:12:16;;;;;;;3.30;3.00;;;20.40;99.90;;;;;;5012520;28;20045;-49
2023/12/31 08:14:42;;;;;;;6.63;3.20;;;20.50;99.90;;;;;;5012655;28;20022;-50
2023/12/31 08:17:08;;;;;;;3.75;2.55;;;20.50;99.90;;;;;;5012602;28;20064;-49
2023/12/31 08:19:34;;;;;;;3.72;2.83;;;20.50;99.90;;;;;;5011354;28;20021;-50
2023/12/31 08:22:00;;;;;;;3.20;2.90;;;20.50;99.90;;;;;;5012402;28;20072;-49
2023/12/31 08:24:25;;;;;;;3.70;2.92;;;20.60;99.90;;;;;;5012614;28;20022;-50
2023/12/31 08:26:52;;;;;;;4.68;3.17;;;20.60;99.90;;;;;;5011265;28;20482;-50
2023/12/31 08:29:18;;;;;;;4.03;3.17;;;20.60;99.90;;;;;;5012325;28;20026;-49
2023/12/31 08:31:52;;;;;;;2.83;2.53;;;20.70;99.90;;;;;;5012345;28;20041;-50
2023/12/31 08:34:18;;;;;;;4.28;2.60;;;20.70;99.90;;;;;;5012327;28;20049;-50
2023/12/31 08:36:44;;;;;;;3.55;2.67;;;20.70;99.90;;;;;;5012312;28;20038;-51
2023/12/31 08:39:10;;;;;;;3.42;3.15;;;20.70;99.90;;;;;;5010968;28;20022;-50
2023/12/31 08:41:36;;;;;;;3.92;3.20;;;20.80;99.90;;;;;;5010982;28;20029;-50
2023/12/31 08:44:02;;;;;;;3.05;2.63;;;20.70;99.90;;;;;;5012232;28;20096;-50
2023/12/31 08:46:28;;;;;;;2.60;2.40;;;20.80;99.90;;;;;;5012418;28;20033;-49
2023/12/31 08:48:54;;;;;;;3.65;3.08;;;20.80;99.90;;;;;;5010974;28;20084;-51
2023/12/31 08:51:20;;;;;;;2.90;2.22;;;20.80;99.90;;;;;;5012153;28;20604;-51
2023/12/31 08:53:45;;;;;;;3.65;2.55;;;20.80;99.90;;;;;;5012174;28;20084;-50
2023/12/31 08:56:11;;;;;;;3.10;2.50;;;20.90;99.90;;;;;;5012191;28;20022;-50
2023/12/31 08:58:37;;;;;;;2.97;2.35;;;20.90;99.90;;;;;;5012023;28;20053;-50
2023/12/31 09:01:03;;;;;;;3.35;2.83;;;20.90;99.90;;;;;;5012100;28;20441;-50
2023/12/31 09:03:29;;;;;;;2.65;2.25;;;20.90;99.90;;;;;;5012521;28;20032;-50
2023/12/31 09:05:55;;;;;;;5.53;2.60;;;21.00;99.90;;;;;;5012760;28;20014;-49
2023/12/31 09:08:20;;;;;;;3.28;2.75;;;21.00;99.90;;;;;;5015701;28;20076;-50
2023/12/31 09:10:46;;;;;;;3.45;2.47;;;21.00;99.90;;;;;;5014559;28;20109;-50
2023/12/31 09:13:12;;;;;;;3.22;2.45;;;21.00;99.90;;;;;;5015762;28;20041;-50
2023/12/31 09:15:38;;;;;;;3.30;2.70;;;21.10;99.90;;;;;;5015874;28;20462;-50
2023/12/31 09:18:04;;;;;;;2.70;2.45;;;21.10;99.90;;;;;;5015708;28;20076;-50
2023/12/31 09:20:31;;;;;;;3.45;2.55;;;21.10;99.90;;;;;;5015804;28;20072;-51
2023/12/31 09:22:56;;;;;;;3.53;2.55;;;21.10;99.90;;;;;;5014598;28;20037;-50
2023/12/31 09:25:22;;;;;;;3.38;2.47;;;21.20;99.90;;;;;;5015695;28;20030;-50
2023/12/31 09:27:49;;;;;;;5.05;2.58;;;21.20;99.90;;;;;;5014139;28;20026;-50
2023/12/31 09:30:14;;;;;;;3.08;2.60;;;21.20;99.90;;;;;;5015428;28;20022;-50
2023/12/31 09:32:42;;;;;;;4.85;2.65;;;21.20;99.90;;;;;;5015336;28;20501;-50
2023/12/31 09:35:07;;;;;;;3.22;2.55;;;21.30;99.90;;;;;;5015556;28;20104;-50
2023/12/31 09:37:34;;;;;;;3.70;3.00;;;21.30;99.90;;;;;;5015378;28;20112;-50
2023/12/31 09:40:00;;;;;;;4.75;2.90;;;21.30;99.90;;;;;;5015568;28;20028;-50
2023/12/31 09:42:35;;;;;;;3.83;3.15;;;21.40;99.90;;;;;;5015110;28;20064;-50
2023/12/31 09:45:04;;;;;;;4.82;3.58;;;21.40;99.90;;;;;;5015218;28;20084;-50
2023/12/31 09:47:32;;;;;;;5.45;3.28;;;21.40;99.90;;;;;;5015274;28;20030;-51
2023/12/31 09:49:58;;;;;;;4.60;3.30;;;21.50;99.90;;;;;;5015255;28;20030;-50
2023/12/31 09:52:26;;;;;;;5.53;3.58;;;21.50;99.90;;;;;;5014851;28;20041;-50
2023/12/31 09:54:54;;;;;;;4.70;3.42;;;21.50;99.90;;;;;;5014703;28;20033;-50
2023/12/31 09:57:22;;;;;;;3.80;3.08;;;21.50;99.90;;;;;;5014830;28;20077;-51
2023/12/31 09:59:50;;;;;;;6.68;4.22;;;21.60;99.90;;;;;;5014712;28;20030;-51
2023/12/31 10:02:22;;;;;;;4.60;3.25;;;21.60;99.90;;;;;;5014754;28;20046;-51
2023/12/31 10:04:51;;;;;;;5.45;3.72;;;21.70;99.90;;;;;;5014842;28;20084;-51
2023/12/31 10:07:17;;;;;;;5.00;4.00;;;21.70;99.90;;;;;;5014692;28;20054;-51
2023/12/31 10:09:44;;;;;;;8.07;4.15;;;21.70;99.90;;;;;;5013278;28;20034;-52
2023/12/31 10:12:11;;;;;;;6.43;4.15;;;21.80;99.90;;;;;;5014798;28;20117;-51
2023/12/31 10:14:36;;;;;;;4.07;3.40;;;21.70;99.90;;;;;;5014720;28;20525;-51
2023/12/31 10:17:07;;;;;;;5.47;3.55;;;21.80;99.90;;;;;;5014637;28;20040;-51
2023/12/31 10:19:33;;;;;;;4.97;4.10;;;21.90;99.90;;;;;;5014189;28;20096;-52
2023/12/31 10:21:59;;;;;;;5.32;4.38;;;21.90;99.90;;;;;;5014561;28;20026;-51
2023/12/31 10:24:29;;;;;;;5.35;3.60;;;21.90;99.90;;;;;;5014467;28;20037;-52
2023/12/31 10:27:00;;;;;;;4.30;3.47;;;22.00;99.90;;;;;;5014389;28;20029;-52
2023/12/31 10:29:26;;;;;;;8.70;4.25;;;22.00;99.90;;;;;;5014215;28;20101;-51
2023/12/31 10:31:55;;;;;;;5.22;3.42;;;22.10;99.90;;;;;;5013129;28;20041;-51
2023/12/31 10:34:21;;;;;;;5.45;3.33;;;22.10;99.90;;;;;;5014261;28;20496;-52
2023/12/31 10:36:48;;;;;;;7.45;4.20;;;22.10;99.90;;;;;;5014185;28;20026;-51
2023/12/31 10:39:27;;;;;;;5.00;4.25;;;22.20;99.90;;;;;;5014115;28;20056;-52
2023/12/31 10:41:58;;;;;;;4.43;3.38;;;22.20;99.90;;;;;;5013956;28;20034;-51
2023/12/31 10:44:27;;;;;;;5.65;3.58;;;22.30;99.90;;;;;;5012731;28;20034;-51
2023/12/31 10:46:58;;;;;;;5.18;3.85;;;22.30;99.90;;;;;;5013726;28;20022;-51
2023/12/31 10:49:27;;;;;;;4.85;3.72;;;22.40;99.90;;;;;;5013971;28;20412;-51
2023/12/31 10:51:54;;;;;;;6.10;4.03;;;22.40;99.90;;;;;;5013730;28;20117;-52
2023/12/31 10:54:43;;;;;;;4.40;3.97;;;22.40;99.90;;;;;;5013866;28;20029;-51
2023/12/31 10:57:09;;;;;;;7.60;3.92;;;22.50;99.90;;;;;;5013666;28;20120;-50
2023/12/31 10:59:39;;;;;;;4.82;3.50;;;22.60;99.90;;;;;;5012664;28;20022;-51
2023/12/31 11:02:05;;;;;;;5.43;4.22;;;22.60;99.90;;;;;;5013639;28;20049;-52
2023/12/31 11:04:32;;;;;;;5.30;3.70;;;22.60;99.90;;;;;;5013619;28;20105;-51
2023/12/31 11:07:01;;;;;;;4.45;3.28;;;22.70;99.90;;;;;;5013433;28;20044;-51
2023/12/31 11:09:28;;;;;;;5.85;3.72;;;22.70;99.90;;;;;;5013646;28;20072;-52
2023/12/31 11:11:54;;;;;;;5.97;3.90;;;22.70;99.90;;;;;;5013532;28;20047;-51
2023/12/31 11:14:27;;;;;;;5.68;3.75;;;22.80;99.90;;;;;;5013612;28;20026;-52
2023/12/31 11:17:02;;;;;;;6.25;3.95;;;22.80;99.90;;;;;;5013592;28;20029;-52
2023/12/31 11:19:40;;;;;;;4.50;3.35;;;22.90;99.90;;;;;;5013416;28;20561;-51
2023/12/31 11:22:21;;;;;;;4.50;3.40;;;22.90;99.90;;;;;;5013483;28;20029;-51
2023/12/31 11:24:47;;;;;;;4.80;3.67;;;22.90;99.90;;;;;;5013334;28;20025;-52
2023/12/31 11:27:16;;;;;;;7.65;3.95;;;22.90;99.90;;;;;;5013148;28;20030;-51
2023/12/31 11:29:49;;;;;;;4.20;3.63;;;22.90;99.90;;;;;;5013137;28;20478;-51
2023/12/31 11:32:18;;;;;;;5.45;3.72;;;22.90;99.90;;;;;;5013287;28;20037;-51
2023/12/31 11:34:51;;;;;;;4.15;3.38;;;23.00;99.90;;;;;;5013141;28;20029;-57
2023/12/31 11:37:17;;;;;;;5.53;3.40;;;22.90;99.90;;;;;;5013055;28;20097;-51
2023/12/31 11:39:53;;;;;;;5.07;3.35;;;22.90;99.90;;;;;;5011835;28;20430;-52
2023/12/31 11:42:19;;;;;;;5.22;3.88;;;22.90;99.90;;;;;;5011627;28;20034;-53
2023/12/31 11:44:46;;;;;;;4.97;3.47;;;22.90;99.90;;;;;;5011617;28;20026;-52
2023/12/31 11:47:25;;;;;;;5.45;3.05;;;22.90;99.90;;;;;;5012924;28;20025;-51
2023/12/31 11:49:59;;;;;;;4.13;3.10;;;22.90;99.90;;;;;;4995723;28;20026;-51
2023/12/31 11:52:40;;;;;;;5.55;3.28;;;22.90;99.90;;;;;;5012537;28;20037;-51
2023/12/31 11:55:11;;;;;;;4.88;3.15;;;22.90;99.90;;;;;;5012939;28;20076;-51
2023/12/31 11:57:38;;;;;;;4.95;3.50;;;22.90;99.90;;;;;;5012891;28;20048;-51
2023/12/31 12:00:08;;;;;;;5.32;3.30;;;22.90;99.90;;;;;;5012783;28;20033;-51
2023/12/31 12:02:34;;;;;;;4.68;3.42;;;22.90;99.90;;;;;;5011144;28;20111;-51
2023/12/31 12:05:00;;;;;;;4.45;3.30;;;22.90;99.90;;;;;;5012504;28;20659;-51
2023/12/31 12:07:28;;;;;;;6.15;3.60;;;22.90;99.90;;;;;;5011316;28;20024;-51
2023/12/31 12:09:53;;;;;;;4.55;3.03;;;22.90;99.90;;;;;;5012551;28;20597;-52
2023/12/31 12:12:19;;;;;;;3.50;3.13;;;22.90;99.90;;;;;;5012525;28;20117;-51
2023/12/31 12:14:48;;;;;;;5.00;3.50;;;22.90;99.90;;;;;;5012619;28;20036;-52
2023/12/31 12:17:15;;;;;;;4.55;2.80;;;23.00;99.90;;;;;;5012535;28;20070;-51
2023/12/31 12:19:41;;;;;;;3.85;2.97;;;23.00;99.90;;;;;;5012409;28;20099;-51
2023/12/31 12:22:07;;;;;;;4.63;3.17;;;23.00;99.90;;;;;;5012627;28;20505;-51
2023/12/31 12:24:33;;;;;;;4.15;2.97;;;23.00;99.90;;;;;;5012616;28;20033;-52
2023/12/31 12:27:01;;;;;;;4.20;3.08;;;23.00;99.90;;;;;;5012401;28;20024;-51
2023/12/31 12:29:28;;;;;;;4.70;3.03;;;23.00;99.90;;;;;;5012346;28;20025;-51
2023/12/31 12:31:54;;;;;;;4.15;3.35;;;23.10;99.90;;;;;;5012180;28;20030;-51
2023/12/31 12:34:20;;;;;;;5.53;3.10;;;23.10;99.90;;;;;;5012291;28;20030;-51
2023/12/31 12:36:50;;;;;;;3.35;2.95;;;23.10;99.90;;;;;;5011049;28;20041;-51
2023/12/31 12:39:16;;;;;;;4.38;3.17;;;23.10;99.90;;;;;;5012367;28;20064;-51
2023/12/31 12:41:50;;;;;;;4.72;3.15;;;23.10;99.90;;;;;;5014134;28;20026;-51
2023/12/31 12:44:16;;;;;;;4.10;3.17;;;23.20;99.90;;;;;;5014826;28;20068;-50